createdAt,value
2022-07-27T04:01:07.036Z,52.86
2022-07-27T04:03:38.897Z,52.82
2022-07-27T04:06:11.003Z,52.77
2022-07-27T04:08:40.023Z,52.82
2022-07-27T04:11:09.062Z,52.88
2022-07-27T04:13:40.769Z,52.89
2022-07-27T04:16:10.799Z,52.83
2022-07-27T04:18:39.715Z,52.84
2022-07-27T04:21:09.046Z,52.56
2022-07-27T04:23:38.464Z,52.65
2022-07-27T04:26:07.263Z,52.60
2022-07-27T04:28:37.346Z,52.63
2022-07-27T04:31:06.873Z,52.58
2022-07-27T04:33:36.136Z,52.46
2022-07-27T04:36:05.986Z,52.47
2022-07-27T04:38:34.929Z,52.24
2022-07-27T04:41:03.281Z,52.04
2022-07-27T04:43:32.712Z,51.45
2022-07-27T04:46:05.109Z,51.01
2022-07-27T04:48:35.767Z,50.55
2022-07-27T04:51:05.238Z,50.62
2022-07-27T04:53:36.413Z,50.05
2022-07-27T04:56:05.574Z,49.44
2022-07-27T04:58:34.704Z,48.74
2022-07-27T05:01:04.899Z,47.76
2022-07-27T05:03:33.889Z,47.03
2022-07-27T05:06:03.069Z,46.03
2022-07-27T05:08:32.175Z,45.33
2022-07-27T05:11:01.442Z,45.17
2022-07-27T05:13:30.689Z,44.88
2022-07-27T05:15:59.861Z,44.95
2022-07-27T05:18:28.587Z,44.79
2022-07-27T05:20:58.075Z,44.41
2022-07-27T05:23:27.257Z,44.01
2022-07-27T05:25:56.581Z,43.49
2022-07-27T05:28:25.776Z,42.00
2022-07-27T05:30:54.545Z,41.47
2022-07-27T05:33:23.601Z,40.98
2022-07-27T05:35:52.593Z,40.07
2022-07-27T05:38:21.433Z,39.57
2022-07-27T05:40:50.110Z,38.70
2022-07-27T05:43:19.152Z,38.30
2022-07-27T05:45:48.091Z,36.64
2022-07-27T05:48:17.405Z,36.67
2022-07-27T05:50:45.774Z,36.10
2022-07-27T05:53:14.774Z,35.17
2022-07-27T05:55:58.170Z,34.82
2022-07-27T05:58:29.892Z,34.24
2022-07-27T06:00:59.274Z,33.60
2022-07-27T06:03:28.609Z,33.18
2022-07-27T06:06:17.599Z,32.85
2022-07-27T06:08:46.167Z,31.87
2022-07-27T06:11:14.924Z,31.36
2022-07-27T06:13:43.955Z,31.95
2022-07-27T06:16:12.674Z,32.67
2022-07-27T06:18:41.670Z,32.20
2022-07-27T06:21:11.052Z,31.96
2022-07-27T06:23:40.035Z,31.84
2022-07-27T06:26:09.787Z,31.67
2022-07-27T06:28:38.243Z,31.41
2022-07-27T06:31:06.920Z,31.18
2022-07-27T06:33:35.980Z,31.60
2022-07-27T06:36:06.151Z,31.35
2022-07-27T06:38:35.713Z,31.30
2022-07-27T06:41:04.789Z,31.38
2022-07-27T06:43:34.182Z,31.44
2022-07-27T06:46:04.565Z,31.27
2022-07-27T06:48:34.298Z,31.51
2022-07-27T06:51:03.380Z,31.50
2022-07-27T06:53:36.282Z,31.53
2022-07-27T06:56:08.805Z,31.63
2022-07-27T06:58:41.280Z,31.60
2022-07-27T07:01:10.889Z,31.55
2022-07-27T07:03:40.093Z,31.60
2022-07-27T07:06:09.341Z,31.35
2022-07-27T07:08:38.728Z,31.19
2022-07-27T07:11:09.523Z,31.34
2022-07-27T07:13:43.254Z,31.20
2022-07-27T07:16:14.544Z,31.22
2022-07-27T07:18:44.440Z,31.41
2022-07-27T07:21:17.325Z,31.70
2022-07-27T07:23:46.639Z,31.48
2022-07-27T07:26:15.134Z,31.44
2022-07-27T07:28:44.331Z,31.68
2022-07-27T07:31:13.787Z,31.36
2022-07-27T07:33:42.981Z,31.53
2022-07-27T07:36:14.820Z,31.68
2022-07-27T07:38:45.399Z,31.56
2022-07-27T07:41:13.835Z,31.47
2022-07-27T07:43:42.886Z,31.59
2022-07-27T07:46:12.407Z,31.42
2022-07-27T07:48:43.943Z,31.70
2022-07-27T07:51:12.547Z,31.51
2022-07-27T07:53:41.894Z,31.35
2022-07-27T07:56:10.980Z,31.52
2022-07-27T07:58:39.527Z,31.41
2022-07-27T08:01:09.082Z,31.54
2022-07-27T08:03:38.172Z,31.42
2022-07-27T08:06:07.202Z,31.61
2022-07-27T08:08:36.756Z,31.49
2022-07-27T08:11:05.455Z,31.60
2022-07-27T08:13:34.532Z,31.57
2022-07-27T08:16:03.186Z,31.34
2022-07-27T08:18:32.758Z,31.44
2022-07-27T08:21:01.766Z,31.61
2022-07-27T08:23:33.050Z,31.60
2022-07-27T08:26:07.533Z,31.61
2022-07-27T08:28:37.412Z,31.65
2022-07-27T08:31:14.527Z,31.39
2022-07-27T08:33:46.471Z,31.25
2022-07-27T08:36:15.620Z,31.46
2022-07-27T08:38:44.677Z,31.60
2022-07-27T08:41:15.601Z,31.69
2022-07-27T08:43:46.400Z,31.83
2022-07-27T08:46:19.517Z,31.71
2022-07-27T08:48:48.878Z,31.90
2022-07-27T08:51:18.193Z,32.04
2022-07-27T08:53:52.382Z,31.64
2022-07-27T08:56:22.707Z,31.75
2022-07-27T08:58:51.397Z,31.80
2022-07-27T09:01:20.384Z,31.99
2022-07-27T09:03:52.194Z,31.84
2022-07-27T09:06:40.248Z,31.83
2022-07-27T09:09:10.621Z,32.08
2022-07-27T09:11:40.566Z,32.09
2022-07-27T09:14:13.296Z,31.96
2022-07-27T09:17:43.898Z,32.05
2022-07-27T09:19:31.873Z,31.90
2022-07-27T09:22:06.244Z,31.99
2022-07-27T09:24:46.625Z,31.88
2022-07-27T09:27:16.420Z,31.94
2022-07-27T09:29:45.619Z,31.90
2022-07-27T09:32:16.354Z,31.92
2022-07-27T09:34:45.871Z,32.22
2022-07-27T09:37:25.477Z,32.26
2022-07-27T09:40:25.690Z,32.19
2022-07-27T09:44:12.121Z,32.24
2022-07-27T09:46:08.383Z,32.41
2022-07-27T09:48:38.332Z,32.33
2022-07-27T09:54:11.444Z,32.40
2022-07-27T09:56:40.663Z,32.44
2022-07-27T09:59:09.773Z,32.42
2022-07-27T10:01:47.726Z,32.37
2022-07-27T10:04:19.631Z,32.61
2022-07-27T10:07:02.289Z,32.47
2022-07-27T10:09:35.604Z,32.53
2022-07-27T10:12:05.336Z,32.52
2022-07-27T10:14:35.881Z,32.29
2022-07-27T10:17:06.396Z,32.23
2022-07-27T10:19:46.212Z,32.04
2022-07-27T10:22:15.976Z,32.27
2022-07-27T10:24:46.783Z,32.42
2022-07-27T10:27:28.571Z,32.38
2022-07-27T10:30:06.422Z,32.52
2022-07-27T10:32:35.776Z,32.49
2022-07-27T10:35:05.438Z,32.41
2022-07-27T10:37:35.994Z,32.30
2022-07-27T10:40:26.711Z,32.44
2022-07-27T10:43:19.302Z,32.43
2022-07-27T10:46:01.293Z,32.33
2022-07-27T10:48:44.152Z,32.13
2022-07-27T10:51:34.486Z,32.31
2022-07-27T10:54:40.215Z,32.27
2022-07-27T10:57:09.896Z,32.40
2022-07-27T11:00:07.028Z,32.30
2022-07-27T11:02:43.292Z,32.41
2022-07-27T11:05:42.577Z,32.50
2022-07-27T11:08:35.601Z,32.51
2022-07-27T11:10:51.981Z,32.50
2022-07-27T11:13:25.890Z,32.63
2022-07-27T11:16:24.724Z,32.21
2022-07-27T11:19:05.730Z,32.14
2022-07-27T11:21:39.435Z,32.12
2022-07-27T11:24:18.040Z,32.09
2022-07-27T11:26:53.596Z,32.01
2022-07-27T11:29:24.576Z,31.90
2022-07-27T11:31:58.100Z,31.84
2022-07-27T11:34:36.892Z,31.71
2022-07-27T11:37:20.458Z,31.82
2022-07-27T11:40:03.221Z,31.60
2022-07-27T11:42:47.198Z,31.75
2022-07-27T11:45:30.491Z,31.70
2022-07-27T11:48:00.017Z,31.69
2022-07-27T11:50:28.863Z,31.80
2022-07-27T11:53:02.045Z,31.69
2022-07-27T11:55:30.990Z,31.46
2022-07-27T11:58:04.787Z,31.40
2022-07-27T12:00:45.175Z,31.11
2022-07-27T12:03:32.140Z,31.09
2022-07-27T12:06:15.075Z,31.20
2022-07-27T12:08:44.817Z,31.02
2022-07-27T12:11:13.988Z,30.95
2022-07-27T12:13:43.226Z,30.99
2022-07-27T12:16:18.664Z,31.03
2022-07-27T12:18:47.954Z,30.71
2022-07-27T12:21:18.798Z,30.70
2022-07-27T12:23:55.833Z,30.80
2022-07-27T12:26:29.960Z,30.87
2022-07-27T12:29:11.945Z,30.78
2022-07-27T12:31:50.139Z,30.63
2022-07-27T12:34:19.439Z,30.69
2022-07-27T12:36:49.069Z,30.71
2022-07-27T12:39:32.115Z,30.39
2022-07-27T12:42:06.519Z,30.28
2022-07-27T12:44:37.719Z,30.39
2022-07-27T12:47:28.223Z,30.47
2022-07-27T12:50:02.414Z,30.50
2022-07-27T12:52:32.984Z,30.52
2022-07-27T12:55:03.031Z,30.59
2022-07-27T12:57:54.079Z,30.37
2022-07-27T13:00:27.936Z,30.48
2022-07-27T13:03:04.914Z,30.53
2022-07-27T13:05:35.378Z,30.24
2022-07-27T13:08:05.419Z,30.37
2022-07-27T13:10:37.141Z,30.08
2022-07-27T13:13:08.708Z,30.31
2022-07-27T13:15:38.127Z,30.35
2022-07-27T13:18:08.643Z,30.40
2022-07-27T13:20:37.950Z,30.22
2022-07-27T13:23:09.327Z,30.15
2022-07-27T13:25:43.211Z,30.27
2022-07-27T13:28:13.522Z,30.06
2022-07-27T13:30:42.556Z,30.17
2022-07-27T13:33:11.764Z,30.08
2022-07-27T13:35:40.717Z,29.94
2022-07-27T13:38:16.074Z,30.02
2022-07-27T13:40:48.514Z,29.98
2022-07-27T13:43:20.092Z,30.07
2022-07-27T13:45:49.935Z,30.21
2022-07-27T13:48:18.481Z,30.07
2022-07-27T13:50:47.698Z,30.06
2022-07-27T13:53:19.102Z,30.02
2022-07-27T13:55:48.725Z,30.08
2022-07-27T13:58:17.188Z,29.86
2022-07-27T14:00:46.924Z,29.78
2022-07-27T14:03:15.590Z,29.68
2022-07-27T14:05:49.449Z,29.74
2022-07-27T14:08:19.920Z,29.70
2022-07-27T14:10:51.318Z,29.51
2022-07-27T14:13:23.816Z,29.61
2022-07-27T14:15:55.608Z,29.68
2022-07-27T14:18:32.595Z,29.64
2022-07-27T14:21:09.542Z,29.62
2022-07-27T14:23:38.947Z,29.64
2022-07-27T14:26:08.986Z,29.53
2022-07-27T14:28:44.765Z,29.50
2022-07-27T14:31:15.015Z,29.47
2022-07-27T14:33:44.434Z,29.51
2022-07-27T14:36:13.796Z,29.51
2022-07-27T14:38:45.732Z,29.46
2022-07-27T14:41:16.530Z,29.58
2022-07-27T14:43:45.247Z,29.28
2022-07-27T14:46:13.911Z,29.22
2022-07-27T14:51:33.945Z,29.29
2022-07-27T14:54:03.478Z,29.36
2022-07-27T14:56:32.449Z,29.36
2022-07-27T14:59:00.903Z,29.34
2022-07-27T15:01:30.013Z,29.28
2022-07-27T15:03:59.516Z,29.20
2022-07-27T15:06:28.319Z,29.38
2022-07-27T15:08:58.191Z,29.49
2022-07-27T15:11:30.058Z,29.33
2022-07-27T15:13:59.679Z,29.26
2022-07-27T15:16:29.568Z,29.55
2022-07-27T15:18:57.961Z,29.44
2022-07-27T15:21:27.904Z,29.34
2022-07-27T15:23:57.065Z,29.53
2022-07-27T15:26:26.481Z,29.29
2022-07-27T15:28:55.316Z,29.29
2022-07-27T15:31:26.116Z,29.16
2022-07-27T15:33:56.286Z,29.45
2022-07-27T15:36:33.056Z,29.43
2022-07-27T15:39:02.755Z,29.20
2022-07-27T15:41:34.229Z,29.20
2022-07-27T15:44:04.402Z,29.26
2022-07-27T15:46:34.021Z,29.25
2022-07-27T15:49:03.699Z,29.16
2022-07-27T15:51:32.829Z,29.20
2022-07-27T15:54:02.330Z,29.09
2022-07-27T15:56:32.430Z,29.13
2022-07-27T15:59:00.902Z,29.16
2022-07-27T16:01:35.226Z,29.17
2022-07-27T16:04:06.376Z,29.31
2022-07-27T16:06:39.357Z,29.33
2022-07-27T16:09:10.018Z,29.10
2022-07-27T16:11:39.439Z,29.07
2022-07-27T16:14:08.102Z,29.26
2022-07-27T16:16:37.697Z,29.19
2022-07-27T16:19:13.629Z,29.23
2022-07-27T16:21:54.685Z,29.18
2022-07-27T16:24:26.598Z,29.11
2022-07-27T16:26:56.221Z,29.13
2022-07-27T16:29:26.436Z,29.19
2022-07-27T16:32:00.165Z,29.34
2022-07-27T16:34:33.106Z,29.38
2022-07-27T16:37:01.951Z,29.49
2022-07-27T16:39:32.990Z,29.48
2022-07-27T16:42:01.899Z,29.59
2022-07-27T16:44:31.254Z,29.64
2022-07-27T16:47:00.319Z,29.63
2022-07-27T16:49:33.667Z,29.77
2022-07-27T16:52:06.930Z,29.76
2022-07-27T16:54:39.515Z,29.76
2022-07-27T16:57:09.695Z,29.80
2022-07-27T16:59:42.070Z,29.85
2022-07-27T17:02:11.526Z,29.95
2022-07-27T17:04:40.961Z,29.94
2022-07-27T17:07:12.262Z,30.10
2022-07-27T17:09:41.882Z,30.14
2022-07-27T17:12:10.427Z,30.12
2022-07-27T17:14:39.705Z,30.14
2022-07-27T17:17:09.540Z,30.25
2022-07-27T17:19:41.722Z,30.31
2022-07-27T17:22:10.690Z,30.35
2022-07-27T17:24:39.779Z,30.45
2022-07-27T17:27:08.870Z,30.56
2022-07-27T17:29:37.759Z,30.55
2022-07-27T17:32:06.342Z,30.59
2022-07-27T17:34:34.812Z,30.67
2022-07-27T17:37:03.512Z,30.73
2022-07-27T17:39:32.497Z,30.69
2022-07-27T17:42:02.394Z,30.84
2022-07-27T17:44:35.212Z,30.96
2022-07-27T17:47:05.417Z,31.03
2022-07-27T17:49:35.056Z,31.00
2022-07-27T17:52:07.261Z,31.11
2022-07-27T17:54:36.493Z,31.15
2022-07-27T17:57:06.807Z,31.21
2022-07-27T17:59:37.974Z,31.19
2022-07-27T18:02:08.081Z,31.41
2022-07-27T18:04:39.699Z,31.47
2022-07-27T18:07:09.973Z,31.56
2022-07-27T18:09:39.807Z,31.51
2022-07-27T18:12:09.335Z,31.48
2022-07-27T18:14:58.436Z,31.61
2022-07-27T18:17:27.910Z,31.63
2022-07-27T18:19:56.714Z,31.74
2022-07-27T18:22:26.837Z,31.81
2022-07-27T18:24:55.450Z,31.88
2022-07-27T18:27:24.134Z,31.93
2022-07-27T18:29:52.939Z,32.02
2022-07-27T18:32:21.620Z,31.94
2022-07-27T18:34:50.353Z,32.06
2022-07-27T18:37:18.940Z,32.14
2022-07-27T18:39:48.053Z,32.25
2022-07-27T18:42:16.560Z,32.34
2022-07-27T18:44:45.437Z,32.34
2022-07-27T18:50:42.940Z,32.65
2022-07-27T18:53:12.252Z,32.69
2022-07-27T18:55:41.321Z,32.88
2022-07-27T18:58:10.517Z,32.91
2022-07-27T19:00:39.286Z,33.01
2022-07-27T19:03:09.379Z,33.03
2022-07-27T19:05:41.523Z,33.20
2022-07-27T19:08:13.383Z,33.35
2022-07-27T19:10:43.710Z,33.50
2022-07-27T19:13:13.748Z,33.51
2022-07-27T19:15:46.544Z,33.69
2022-07-27T19:18:16.108Z,33.76
2022-07-27T19:20:45.034Z,33.84
2022-07-27T19:23:15.923Z,33.97
2022-07-27T19:25:45.594Z,34.07
2022-07-27T19:28:16.871Z,34.05
2022-07-27T19:30:45.990Z,34.18
2022-07-27T19:33:15.046Z,34.27
2022-07-27T19:35:44.703Z,34.39
2022-07-27T19:38:15.432Z,34.44
2022-07-27T19:40:46.225Z,34.44
2022-07-27T19:43:15.596Z,34.56
2022-07-27T19:45:44.365Z,34.70
2022-07-27T19:48:14.068Z,34.77
2022-07-27T19:50:42.726Z,34.79
2022-07-27T19:53:12.266Z,34.95
2022-07-27T19:55:40.920Z,34.80
2022-07-27T19:58:14.362Z,34.87
2022-07-27T20:00:51.686Z,35.07
2022-07-27T20:03:26.583Z,35.09
2022-07-27T20:06:00.672Z,35.22
2022-07-27T20:08:34.006Z,35.32
2022-07-27T20:11:06.492Z,35.53
2022-07-27T20:13:39.789Z,35.67
2022-07-27T20:16:08.831Z,35.66
2022-07-27T20:18:39.012Z,35.65
2022-07-27T20:21:23.452Z,35.91
2022-07-27T20:23:54.995Z,35.91
2022-07-27T20:26:26.011Z,36.07
2022-07-27T20:28:56.380Z,36.17
2022-07-27T20:31:27.426Z,36.24
2022-07-27T20:34:01.437Z,36.27
2022-07-27T20:36:34.308Z,36.29
2022-07-27T20:39:07.547Z,36.39
2022-07-27T20:41:37.844Z,36.54
2022-07-27T20:44:06.756Z,36.68
2022-07-27T20:46:36.009Z,36.76
2022-07-27T20:49:05.275Z,36.85
2022-07-27T20:51:36.624Z,36.85
2022-07-27T20:54:06.376Z,37.00
2022-07-27T20:56:35.430Z,37.05
2022-07-27T20:59:08.870Z,36.98
